Time;durP1;ratioP1;P1;durP2;ratioP2;P2;SDS_P1;SDS_P2;PMS_P1;PMS_P2;Temp;Humidity;BMP_temperature;BMP_pressure;BME280_temperature;BME280_humidity;BME280_pressure;Samples;Min_cycle;Max_cycle;Signal;HPM_P1;HPM_P2
2023/12/27 00:02:01;;;;;;;8.33;2.77;;;7.00;99.90;;;;;;4989088;28;20026;-79
2023/12/27 00:04:27;;;;;;;8.17;2.50;;;7.00;99.90;;;;;;4987832;28;20028;-79
2023/12/27 00:06:54;;;;;;;5.80;2.47;;;7.00;99.90;;;;;;4987143;28;20028;-79
2023/12/27 00:09:19;;;;;;;7.00;2.53;;;7.00;99.90;;;;;;4988984;28;20121;-79
2023/12/27 00:11:45;;;;;;;7.63;2.17;;;6.90;99.90;;;;;;4987855;28;20036;-78
2023/12/27 00:14:10;;;;;;;8.43;2.60;;;6.90;99.90;;;;;;4988976;28;20034;-79
2023/12/27 00:16:36;;;;;;;10.63;2.60;;;6.90;99.90;;;;;;4987940;28;20954;-79
2023/12/27 00:19:02;;;;;;;8.40;2.77;;;6.90;99.90;;;;;;4989097;28;20053;-79
2023/12/27 00:21:28;;;;;;;6.00;2.53;;;6.90;99.90;;;;;;4990307;28;20034;-79
2023/12/27 00:23:54;;;;;;;7.27;3.07;;;6.90;99.90;;;;;;4987655;28;20030;-79
2023/12/27 00:26:20;;;;;;;8.77;3.40;;;6.90;99.90;;;;;;4990544;28;20026;-80
2023/12/27 00:28:45;;;;;;;7.30;2.77;;;6.90;99.90;;;;;;4988160;28;20409;-80
2023/12/27 00:31:11;;;;;;;8.33;2.57;;;6.90;99.90;;;;;;4989188;28;21486;-79
2023/12/27 00:33:37;;;;;;;7.83;2.30;;;6.80;99.90;;;;;;4992481;28;20044;-79
2023/12/27 00:36:04;;;;;;;6.63;2.67;;;6.80;99.90;;;;;;4992007;28;20041;-79
2023/12/27 00:38:29;;;;;;;6.60;2.53;;;6.80;99.90;;;;;;4991519;28;20033;-79
2023/12/27 00:40:55;;;;;;;5.97;2.60;;;6.80;99.90;;;;;;4989769;28;20512;-79
2023/12/27 00:43:20;;;;;;;6.97;2.50;;;6.80;99.90;;;;;;4990600;28;20040;-79
2023/12/27 00:45:46;;;;;;;4.67;2.43;;;6.80;99.90;;;;;;4991886;28;20408;-79
2023/12/27 00:48:11;;;;;;;5.00;2.30;;;6.80;99.90;;;;;;4991291;28;20109;-79
2023/12/27 00:50:37;;;;;;;5.77;2.30;;;6.70;99.90;;;;;;4993314;28;20037;-79
2023/12/27 00:53:03;;;;;;;8.57;2.60;;;6.70;99.90;;;;;;4990487;28;20037;-79
2023/12/27 00:55:28;;;;;;;5.97;2.67;;;6.70;99.90;;;;;;4990571;28;20121;-79
2023/12/27 00:57:54;;;;;;;7.70;2.60;;;6.70;99.90;;;;;;4989035;28;20032;-79
2023/12/27 01:00:19;;;;;;;5.83;2.47;;;6.70;99.90;;;;;;4974877;28;20436;-79
2023/12/27 01:02:45;;;;;;;7.20;2.43;;;6.70;99.90;;;;;;4994703;28;20030;-80
2023/12/27 01:05:10;;;;;;;6.50;2.53;;;6.60;99.90;;;;;;4991617;28;20048;-79
2023/12/27 01:07:36;;;;;;;6.83;2.40;;;6.60;99.90;;;;;;4992303;28;20034;-79
2023/12/27 01:10:03;;;;;;;6.37;2.40;;;6.60;99.90;;;;;;4991101;28;20050;-80
2023/12/27 01:12:28;;;;;;;11.17;3.63;;;6.60;99.90;;;;;;4990017;28;20041;-79
2023/12/27 01:14:55;;;;;;;11.30;2.73;;;6.60;99.90;;;;;;4991991;28;21427;-80
2023/12/27 01:17:20;;;;;;;7.00;2.57;;;6.60;99.90;;;;;;4990178;28;20061;-79
2023/12/27 01:19:46;;;;;;;9.93;2.37;;;6.50;99.90;;;;;;4991791;28;20110;-78
2023/12/27 01:22:12;;;;;;;7.17;2.57;;;6.50;99.90;;;;;;4994841;28;20032;-79
2023/12/27 01:24:37;;;;;;;5.83;2.40;;;6.50;99.90;;;;;;4995582;28;20108;-79
2023/12/27 01:27:04;;;;;;;6.90;2.80;;;6.50;99.90;;;;;;4989598;28;20034;-79
2023/12/27 01:29:29;;;;;;;6.00;2.53;;;6.50;99.90;;;;;;4989780;28;20030;-79
2023/12/27 01:31:55;;;;;;;7.47;2.70;;;6.50;99.90;;;;;;4990863;28;20038;-79
2023/12/27 01:34:20;;;;;;;5.80;2.63;;;6.50;99.90;;;;;;4990218;28;20986;-79
2023/12/27 01:36:46;;;;;;;6.07;2.70;;;6.50;99.90;;;;;;4989653;28;20480;-79
2023/12/27 01:39:11;;;;;;;6.60;2.67;;;6.50;99.90;;;;;;4988759;28;21413;-80
2023/12/27 01:41:37;;;;;;;5.80;2.60;;;6.50;99.90;;;;;;4990287;28;20382;-79
2023/12/27 01:44:03;;;;;;;6.97;2.70;;;6.50;99.90;;;;;;4990588;28;20404;-79
2023/12/27 01:46:30;;;;;;;6.57;2.67;;;6.50;99.90;;;;;;4988998;28;20033;-79
2023/12/27 01:48:57;;;;;;;8.47;2.70;;;6.40;99.90;;;;;;4989441;28;20044;-79
2023/12/27 01:51:22;;;;;;;8.23;2.57;;;6.40;99.90;;;;;;4989051;28;20113;-79
2023/12/27 01:53:49;;;;;;;5.40;2.40;;;6.50;99.90;;;;;;4989244;28;20038;-79
2023/12/27 01:56:14;;;;;;;7.27;2.93;;;6.50;99.90;;;;;;4987677;28;20031;-79
2023/12/27 01:58:40;;;;;;;7.50;2.70;;;6.50;99.90;;;;;;4990548;28;20037;-80
2023/12/27 02:01:05;;;;;;;8.10;2.43;;;6.40;99.90;;;;;;4989093;28;20034;-80
2023/12/27 02:03:31;;;;;;;5.80;2.03;;;6.50;99.90;;;;;;4988950;28;20066;-79
2023/12/27 02:05:58;;;;;;;5.83;2.53;;;6.40;99.90;;;;;;4990317;28;20037;-79
2023/12/27 02:08:24;;;;;;;5.33;2.13;;;6.50;99.90;;;;;;4989242;28;20034;-79
2023/12/27 02:10:50;;;;;;;5.63;2.60;;;6.50;99.90;;;;;;4987634;28;20057;-79
2023/12/27 02:13:16;;;;;;;5.83;2.13;;;6.40;99.90;;;;;;4969554;28;20432;-79
2023/12/27 02:15:42;;;;;;;10.67;2.50;;;6.40;99.90;;;;;;4990106;28;20712;-80
2023/12/27 02:18:10;;;;;;;5.60;2.10;;;6.40;99.90;;;;;;4992331;28;20025;-79
2023/12/27 02:20:36;;;;;;;7.60;2.20;;;6.40;99.90;;;;;;4989295;28;20061;-79
2023/12/27 02:23:05;;;;;;;4.37;2.03;;;6.40;99.90;;;;;;4988005;28;20030;-79
2023/12/27 02:25:31;;;;;;;6.13;2.20;;;6.40;99.90;;;;;;4988645;28;20088;-79
2023/12/27 02:27:57;;;;;;;4.33;2.27;;;6.40;99.90;;;;;;4989850;28;20038;-79
2023/12/27 02:30:23;;;;;;;4.00;1.77;;;6.40;99.90;;;;;;4972793;28;20076;-79
2023/12/27 02:32:50;;;;;;;4.93;1.83;;;6.30;99.90;;;;;;4990227;28;20033;-79
2023/12/27 02:35:16;;;;;;;6.87;2.20;;;6.40;99.90;;;;;;4989052;28;20037;-80
2023/12/27 02:37:42;;;;;;;8.50;2.40;;;6.30;99.90;;;;;;4989149;28;20911;-79
2023/12/27 02:40:08;;;;;;;5.97;2.10;;;6.30;99.90;;;;;;4990358;28;20192;-79
2023/12/27 02:42:37;;;;;;;9.20;2.00;;;6.30;99.90;;;;;;4989635;28;20058;-79
2023/12/27 02:45:07;;;;;;;6.70;2.13;;;6.30;99.90;;;;;;4988182;28;20030;-79
2023/12/27 02:47:35;;;;;;;3.90;1.93;;;6.30;99.90;;;;;;4988403;28;20033;-80
2023/12/27 02:50:01;;;;;;;5.93;1.90;;;6.30;99.90;;;;;;4988902;28;20501;-79
2023/12/27 02:52:26;;;;;;;7.53;2.60;;;6.30;99.90;;;;;;4989454;28;20061;-79
2023/12/27 02:54:52;;;;;;;4.30;1.97;;;6.30;99.90;;;;;;4990445;28;20381;-79
2023/12/27 02:57:18;;;;;;;5.47;2.47;;;6.40;99.90;;;;;;4989970;28;20038;-79
2023/12/27 02:59:43;;;;;;;4.50;2.10;;;6.40;99.90;;;;;;4993110;28;20519;-80
2023/12/27 03:02:09;;;;;;;6.33;2.33;;;6.40;99.90;;;;;;4992654;28;20077;-79
2023/12/27 03:04:34;;;;;;;8.10;2.33;;;6.40;99.90;;;;;;4993154;28;20825;-79
2023/12/27 03:07:00;;;;;;;6.83;2.20;;;6.40;99.90;;;;;;4991334;28;20028;-80
2023/12/27 03:09:25;;;;;;;10.07;2.30;;;6.40;99.90;;;;;;4993337;28;20041;-79
2023/12/27 03:11:51;;;;;;;6.17;2.40;;;6.40;99.90;;;;;;4991013;28;20042;-79
2023/12/27 03:14:17;;;;;;;5.97;2.20;;;6.40;99.90;;;;;;4990418;28;20034;-79
2023/12/27 03:16:43;;;;;;;6.87;2.00;;;6.30;99.90;;;;;;4991066;28;20029;-79
2023/12/27 03:19:08;;;;;;;5.57;2.40;;;6.30;99.90;;;;;;4992046;28;20073;-79
2023/12/27 03:21:34;;;;;;;5.47;2.00;;;6.40;99.90;;;;;;4993535;28;20042;-80
2023/12/27 03:23:59;;;;;;;7.33;2.10;;;6.30;99.90;;;;;;4990927;28;20045;-79
2023/12/27 03:26:25;;;;;;;5.37;1.70;;;6.40;99.90;;;;;;4992021;28;20041;-79
2023/12/27 03:28:50;;;;;;;5.80;2.33;;;6.30;99.90;;;;;;4991597;28;20030;-79
2023/12/27 03:31:16;;;;;;;7.07;2.20;;;6.30;99.90;;;;;;4989568;28;20033;-79
2023/12/27 03:33:42;;;;;;;6.70;2.10;;;6.30;99.90;;;;;;4991915;28;20109;-78
2023/12/27 03:36:07;;;;;;;10.00;3.57;;;6.30;99.90;;;;;;4991250;28;20030;-79
2023/12/27 03:38:33;;;;;;;6.83;2.00;;;6.30;99.90;;;;;;4990941;28;20093;-79
2023/12/27 03:40:59;;;;;;;5.77;2.07;;;6.30;99.90;;;;;;4992265;28;20026;-79
2023/12/27 03:43:24;;;;;;;4.63;1.70;;;6.30;99.90;;;;;;4991904;28;20041;-79
2023/12/27 03:45:53;;;;;;;5.37;2.07;;;6.20;99.90;;;;;;4991718;28;20030;-78
2023/12/27 03:48:19;;;;;;;11.77;2.30;;;6.30;99.90;;;;;;4992323;28;20034;-79
2023/12/27 03:50:45;;;;;;;9.73;2.20;;;6.20;99.90;;;;;;4993529;28;20022;-79
2023/12/27 03:53:10;;;;;;;4.37;2.67;;;6.20;99.90;;;;;;4992632;28;20088;-79
2023/12/27 03:55:36;;;;;;;3.97;2.03;;;6.20;99.90;;;;;;4991638;28;20397;-79
2023/12/27 03:58:01;;;;;;;7.53;2.27;;;6.20;99.90;;;;;;4990866;28;20152;-79
2023/12/27 04:00:28;;;;;;;3.63;1.80;;;6.20;99.90;;;;;;4991681;28;20030;-79
2023/12/27 04:02:53;;;;;;;6.57;2.07;;;6.10;99.90;;;;;;4991865;28;20034;-79
2023/12/27 04:05:19;;;;;;;4.67;1.83;;;6.10;99.90;;;;;;4993007;28;21461;-79
2023/12/27 04:07:44;;;;;;;5.20;2.00;;;6.10;99.90;;;;;;4991850;28;20019;-79
2023/12/27 04:10:11;;;;;;;6.83;2.20;;;6.00;99.90;;;;;;4991700;28;20046;-79
2023/12/27 04:12:36;;;;;;;4.83;2.13;;;6.00;99.90;;;;;;4991200;28;20041;-79
2023/12/27 04:15:02;;;;;;;6.43;2.13;;;6.00;99.90;;;;;;4992945;28;20146;-78
2023/12/27 04:17:28;;;;;;;5.87;2.30;;;6.00;99.90;;;;;;4992695;28;20436;-79
2023/12/27 04:19:54;;;;;;;4.63;2.00;;;6.00;99.90;;;;;;4989926;28;20077;-79
2023/12/27 04:22:19;;;;;;;7.53;2.87;;;6.00;99.90;;;;;;4993690;28;20026;-80
2023/12/27 04:24:45;;;;;;;6.23;2.63;;;6.00;99.90;;;;;;4993777;28;20022;-78
2023/12/27 04:27:10;;;;;;;6.73;2.70;;;6.00;99.90;;;;;;4992745;28;20128;-79
2023/12/27 04:29:36;;;;;;;8.47;2.50;;;6.00;99.90;;;;;;4973466;28;20030;-79
2023/12/27 04:32:01;;;;;;;6.87;2.73;;;6.00;99.90;;;;;;4992572;28;20038;-79
2023/12/27 04:34:27;;;;;;;6.07;2.57;;;6.00;99.90;;;;;;4991918;28;20050;-79
2023/12/27 04:36:52;;;;;;;7.77;2.80;;;6.00;99.90;;;;;;4994312;28;20025;-79
2023/12/27 04:39:18;;;;;;;6.37;2.07;;;6.00;99.90;;;;;;4993413;28;20033;-79
2023/12/27 04:41:44;;;;;;;5.63;2.30;;;6.00;99.90;;;;;;4991753;28;21124;-80
2023/12/27 04:44:09;;;;;;;4.43;2.37;;;6.00;99.90;;;;;;4991516;28;20424;-80
2023/12/27 04:46:36;;;;;;;6.77;2.57;;;6.00;99.90;;;;;;4992279;28;20497;-79
2023/12/27 04:49:04;;;;;;;7.17;2.43;;;6.00;99.90;;;;;;4993268;28;20041;-80
2023/12/27 04:51:30;;;;;;;5.57;2.60;;;5.90;99.90;;;;;;4991663;28;20034;-80
2023/12/27 04:53:56;;;;;;;4.87;2.30;;;5.90;99.90;;;;;;4994039;28;20091;-79
2023/12/27 04:56:21;;;;;;;5.00;1.90;;;5.90;99.90;;;;;;4992344;28;20050;-79
2023/12/27 04:58:47;;;;;;;8.30;2.47;;;5.90;99.90;;;;;;4993416;28;20125;-79
2023/12/27 05:01:15;;;;;;;5.07;2.20;;;5.90;99.90;;;;;;4993961;28;20113;-79
2023/12/27 05:03:41;;;;;;;6.00;2.40;;;5.80;99.90;;;;;;4991209;28;20037;-80
2023/12/27 05:06:09;;;;;;;4.27;2.27;;;5.80;99.90;;;;;;4991907;28;20035;-79
2023/12/27 05:08:37;;;;;;;4.50;2.30;;;5.70;99.90;;;;;;4991190;28;20905;-79
2023/12/27 05:11:13;;;;;;;7.43;2.37;;;5.70;99.90;;;;;;4990193;28;20089;-78
2023/12/27 05:13:39;;;;;;;6.37;2.23;;;5.60;99.90;;;;;;4972428;28;21377;-79
2023/12/27 05:16:12;;;;;;;6.90;2.13;;;5.60;99.90;;;;;;4991346;28;20030;-79
2023/12/27 05:18:39;;;;;;;6.10;2.33;;;5.60;99.90;;;;;;4971716;28;20122;-81
2023/12/27 05:21:06;;;;;;;7.07;2.47;;;5.50;99.90;;;;;;4988320;28;20314;-79
2023/12/27 05:23:32;;;;;;;8.67;2.97;;;5.50;99.90;;;;;;4990449;28;20034;-79
2023/12/27 05:25:58;;;;;;;6.20;2.27;;;5.40;99.90;;;;;;4974412;28;20033;-79
2023/12/27 05:28:23;;;;;;;11.00;2.33;;;5.30;99.90;;;;;;4992938;28;20029;-80
2023/12/27 05:30:49;;;;;;;6.80;2.00;;;5.20;99.90;;;;;;4990484;28;20034;-79
2023/12/27 05:33:15;;;;;;;5.83;2.27;;;5.20;99.90;;;;;;4987665;28;20041;-79
2023/12/27 05:35:40;;;;;;;6.63;2.47;;;5.10;99.90;;;;;;4987858;28;20157;-79
2023/12/27 05:38:06;;;;;;;7.07;2.43;;;5.10;99.90;;;;;;4987650;28;20112;-79
2023/12/27 05:40:31;;;;;;;5.70;2.30;;;5.00;99.90;;;;;;4987331;28;20076;-79
2023/12/27 05:42:57;;;;;;;7.60;3.97;;;4.90;99.90;;;;;;4990065;28;20037;-79
2023/12/27 05:45:22;;;;;;;8.80;4.37;;;4.90;99.90;;;;;;4986127;28;20026;-72
2023/12/27 05:47:48;;;;;;;7.07;3.20;;;4.80;99.90;;;;;;4985951;28;20033;-79
2023/12/27 05:50:14;;;;;;;9.07;3.03;;;4.80;99.90;;;;;;4989541;28;20026;-78
2023/12/27 05:52:40;;;;;;;4.63;2.70;;;4.70;99.90;;;;;;4990667;28;20582;-79
2023/12/27 05:55:06;;;;;;;10.73;3.33;;;4.70;99.90;;;;;;4985548;28;20022;-79
2023/12/27 05:57:32;;;;;;;5.87;2.77;;;4.60;99.90;;;;;;4984723;28;20038;-79
2023/12/27 05:59:58;;;;;;;11.53;3.73;;;4.60;99.90;;;;;;4987577;28;20042;-79
2023/12/27 06:02:23;;;;;;;9.10;3.00;;;4.50;99.90;;;;;;4989440;28;20046;-79
2023/12/27 06:04:49;;;;;;;7.97;2.90;;;4.50;99.90;;;;;;4990020;28;20026;-79
2023/12/27 06:07:14;;;;;;;10.77;3.43;;;4.40;99.90;;;;;;4991026;28;20041;-79
2023/12/27 06:09:40;;;;;;;10.07;3.00;;;4.40;99.90;;;;;;4989959;28;20030;-79
2023/12/27 06:12:08;;;;;;;7.63;3.27;;;4.30;99.90;;;;;;4989389;28;20081;-78
2023/12/27 06:14:35;;;;;;;10.87;6.57;;;4.30;99.90;;;;;;4989923;28;20030;-79
2023/12/27 06:17:01;;;;;;;15.43;7.50;;;4.20;99.90;;;;;;4988811;28;20030;-79
2023/12/27 06:19:28;;;;;;;11.50;5.10;;;4.20;99.90;;;;;;4991360;28;20031;-78
2023/12/27 06:21:53;;;;;;;8.57;3.70;;;4.10;99.90;;;;;;4991097;28;20025;-79
2023/12/27 06:24:19;;;;;;;5.30;3.13;;;4.10;99.90;;;;;;4990166;28;20037;-80
2023/12/27 06:26:45;;;;;;;6.67;3.47;;;4.00;99.90;;;;;;4989946;28;20034;-80
2023/12/27 06:29:10;;;;;;;11.30;3.47;;;4.00;99.90;;;;;;4990381;28;20404;-79
2023/12/27 06:31:36;;;;;;;9.23;3.00;;;3.90;99.90;;;;;;4991045;28;20103;-79
2023/12/27 06:34:01;;;;;;;11.73;3.67;;;3.80;99.90;;;;;;4989741;28;21378;-80
2023/12/27 06:36:27;;;;;;;6.57;3.20;;;3.70;99.90;;;;;;4990251;28;20026;-80
2023/12/27 06:38:53;;;;;;;7.40;3.20;;;3.70;99.90;;;;;;4990003;28;20037;-80
2023/12/27 06:41:19;;;;;;;8.33;2.97;;;3.60;99.90;;;;;;4990284;28;20392;-80
2023/12/27 06:43:44;;;;;;;8.37;3.30;;;3.60;99.90;;;;;;4991875;28;20120;-79
2023/12/27 06:46:10;;;;;;;8.87;2.83;;;3.60;99.90;;;;;;4990578;28;20097;-79
2023/12/27 06:48:36;;;;;;;9.43;3.47;;;3.50;99.90;;;;;;4971132;28;20030;-79
2023/12/27 06:51:03;;;;;;;11.03;3.00;;;3.50;99.90;;;;;;4989622;28;20049;-79
2023/12/27 06:53:29;;;;;;;7.20;3.20;;;3.40;99.90;;;;;;4990399;28;20029;-79
2023/12/27 06:55:55;;;;;;;12.43;4.27;;;3.40;99.90;;;;;;4990271;28;20038;-79
2023/12/27 06:58:21;;;;;;;7.93;3.43;;;3.30;99.90;;;;;;4991937;28;20041;-79
2023/12/27 07:00:46;;;;;;;8.20;3.77;;;3.30;99.90;;;;;;4991418;28;20039;-78
2023/12/27 07:03:12;;;;;;;7.13;3.70;;;3.30;99.90;;;;;;4989560;28;20700;-79
2023/12/27 07:05:38;;;;;;;8.53;2.80;;;3.20;99.90;;;;;;4988839;28;20030;-79
2023/12/27 07:08:04;;;;;;;6.67;3.40;;;3.20;99.90;;;;;;4989655;28;20724;-79
2023/12/27 07:10:30;;;;;;;8.03;3.10;;;3.10;99.90;;;;;;4990726;28;20034;-80
2023/12/27 07:12:55;;;;;;;14.33;3.10;;;3.10;99.90;;;;;;4972652;28;20030;-80
2023/12/27 07:15:21;;;;;;;5.67;2.83;;;3.10;99.90;;;;;;4991294;28;20034;-79
2023/12/27 07:17:46;;;;;;;7.07;2.97;;;3.00;99.90;;;;;;4989674;28;20041;-79
2023/12/27 07:20:12;;;;;;;8.97;3.57;;;3.00;99.90;;;;;;4988930;28;20046;-80
2023/12/27 07:22:38;;;;;;;5.43;3.30;;;3.00;99.90;;;;;;4990886;28;20023;-79
2023/12/27 07:25:04;;;;;;;9.40;3.07;;;3.00;99.90;;;;;;4991356;28;20035;-79
2023/12/27 07:27:30;;;;;;;5.80;3.63;;;2.90;99.90;;;;;;4989487;28;20031;-79
2023/12/27 07:29:56;;;;;;;8.17;3.30;;;3.00;99.90;;;;;;4990144;28;20069;-79
2023/12/27 07:32:21;;;;;;;7.27;3.63;;;3.00;99.90;;;;;;4989993;28;20058;-79
2023/12/27 07:34:47;;;;;;;8.87;3.30;;;2.90;99.90;;;;;;4974277;28;20026;-79
2023/12/27 07:37:12;;;;;;;7.40;3.27;;;2.90;99.90;;;;;;4990750;28;20033;-79
2023/12/27 07:39:39;;;;;;;5.30;3.07;;;2.90;99.90;;;;;;4989558;28;20039;-79
2023/12/27 07:42:05;;;;;;;5.40;3.43;;;2.90;99.90;;;;;;4989390;28;20069;-80
2023/12/27 07:44:30;;;;;;;6.33;3.00;;;2.90;99.90;;;;;;4989884;28;20550;-79
2023/12/27 07:46:56;;;;;;;6.10;3.23;;;2.90;99.90;;;;;;4991855;28;20042;-81
2023/12/27 07:49:23;;;;;;;8.87;3.30;;;2.90;99.90;;;;;;4988669;28;20048;-79
2023/12/27 07:51:49;;;;;;;6.90;3.87;;;3.00;99.90;;;;;;4988203;28;20050;-80
2023/12/27 07:54:15;;;;;;;7.87;3.50;;;2.90;99.90;;;;;;4970764;28;20098;-79
2023/12/27 07:56:40;;;;;;;5.53;3.00;;;3.00;99.90;;;;;;4988336;28;20045;-80
2023/12/27 07:59:06;;;;;;;6.37;3.03;;;3.00;99.90;;;;;;4988852;28;20038;-80
2023/12/27 08:01:31;;;;;;;8.00;2.80;;;3.00;99.90;;;;;;4987234;28;20467;-79
2023/12/27 08:03:59;;;;;;;17.83;3.23;;;3.10;99.90;;;;;;4986848;28;20030;-79
2023/12/27 08:06:24;;;;;;;10.97;3.50;;;3.10;99.90;;;;;;4985046;28;20061;-80
2023/12/27 08:08:50;;;;;;;3.97;2.60;;;3.20;99.90;;;;;;4984450;28;20124;-79
2023/12/27 08:11:15;;;;;;;3.63;2.47;;;3.20;99.90;;;;;;4987127;28;20744;-78
2023/12/27 08:13:41;;;;;;;7.37;2.70;;;3.30;99.90;;;;;;4987837;28;20045;-78
2023/12/27 08:16:08;;;;;;;4.17;2.70;;;3.30;99.90;;;;;;4986515;28;20586;-80
2023/12/27 08:18:35;;;;;;;5.50;2.47;;;3.30;99.90;;;;;;4985191;28;20045;-81
2023/12/27 08:21:00;;;;;;;5.23;2.70;;;3.30;99.90;;;;;;4987001;28;21237;-81
2023/12/27 08:23:26;;;;;;;9.47;2.87;;;3.40;99.90;;;;;;4986502;28;20050;-80
2023/12/27 08:25:51;;;;;;;8.63;3.17;;;3.40;99.90;;;;;;4988554;28;20033;-80
2023/12/27 08:28:17;;;;;;;6.80;2.90;;;3.50;99.90;;;;;;4986460;28;20089;-80
2023/12/27 08:30:44;;;;;;;4.83;2.60;;;3.50;99.90;;;;;;4987085;28;20038;-80
2023/12/27 08:33:09;;;;;;;8.03;3.10;;;3.60;99.90;;;;;;4986680;28;20034;-79
2023/12/27 08:35:36;;;;;;;6.50;3.13;;;3.60;99.90;;;;;;4968501;28;20030;-79
2023/12/27 08:38:02;;;;;;;5.10;3.27;;;3.60;99.90;;;;;;4987025;28;20030;-80
2023/12/27 08:40:28;;;;;;;6.17;3.17;;;3.70;99.90;;;;;;4986482;28;20026;-78
2023/12/27 08:42:55;;;;;;;6.43;3.33;;;3.70;99.90;;;;;;4988359;28;20030;-79
2023/12/27 08:45:20;;;;;;;6.23;3.20;;;3.80;99.90;;;;;;4990167;28;20393;-79
2023/12/27 08:47:46;;;;;;;7.23;3.10;;;3.90;99.90;;;;;;4989548;28;20030;-78
2023/12/27 08:50:12;;;;;;;6.17;2.83;;;4.00;99.90;;;;;;4990644;28;20124;-78
2023/12/27 08:52:39;;;;;;;8.40;3.40;;;4.10;99.90;;;;;;4990459;28;20035;-79
2023/12/27 08:55:10;;;;;;;5.17;3.00;;;4.30;99.90;;;;;;4987423;28;20030;-79
2023/12/27 08:57:36;;;;;;;5.87;2.90;;;4.50;99.90;;;;;;4984622;28;20118;-80
2023/12/27 09:00:02;;;;;;;8.43;3.20;;;4.60;99.90;;;;;;4986330;28;20062;-79
2023/12/27 09:02:28;;;;;;;9.00;3.20;;;4.70;99.90;;;;;;4985530;28;20029;-79
2023/12/27 09:04:53;;;;;;;6.07;3.17;;;4.80;99.90;;;;;;4986747;28;20105;-79
2023/12/27 09:07:19;;;;;;;6.17;3.00;;;5.00;99.90;;;;;;4985387;28;20030;-79
2023/12/27 09:09:44;;;;;;;6.73;3.33;;;5.10;99.90;;;;;;4980600;28;20792;-78
2023/12/27 09:12:10;;;;;;;8.93;3.20;;;5.20;99.90;;;;;;4982034;28;20937;-78
2023/12/27 09:14:39;;;;;;;7.53;3.57;;;5.30;99.90;;;;;;4983496;28;20022;-80
2023/12/27 09:17:05;;;;;;;6.13;2.83;;;5.40;99.90;;;;;;4983252;28;20056;-79
2023/12/27 09:19:31;;;;;;;6.10;2.70;;;5.50;99.90;;;;;;4985922;28;20042;-80
2023/12/27 09:21:56;;;;;;;7.23;2.80;;;5.60;99.90;;;;;;4986204;28;20109;-78
2023/12/27 09:24:22;;;;;;;4.43;2.40;;;5.60;99.90;;;;;;4987241;28;20037;-79
2023/12/27 09:26:48;;;;;;;8.30;2.93;;;5.70;99.90;;;;;;4985327;28;20038;-80
2023/12/27 09:29:14;;;;;;;5.50;2.17;;;5.80;99.90;;;;;;4985444;28;20108;-79
2023/12/27 09:31:41;;;;;;;2.97;2.03;;;5.80;99.90;;;;;;4988523;28;20042;-80
2023/12/27 09:34:06;;;;;;;5.43;2.33;;;5.90;99.90;;;;;;4986750;28;21139;-80
2023/12/27 09:36:32;;;;;;;2.83;2.00;;;5.90;99.90;;;;;;4968242;28;20030;-80
2023/12/27 09:38:58;;;;;;;8.57;2.20;;;6.00;99.90;;;;;;4986966;28;20571;-79
2023/12/27 09:41:24;;;;;;;4.87;2.60;;;6.00;99.90;;;;;;4988205;28;20775;-80
2023/12/27 09:43:52;;;;;;;6.10;2.57;;;6.10;99.90;;;;;;4987815;28;20041;-79
2023/12/27 09:46:18;;;;;;;5.20;2.03;;;6.10;99.90;;;;;;4987319;28;20065;-79
2023/12/27 09:48:45;;;;;;;4.23;2.53;;;6.20;99.90;;;;;;4986866;28;20045;-78
2023/12/27 09:51:14;;;;;;;3.50;2.07;;;6.20;99.90;;;;;;4987494;28;20034;-78
2023/12/27 09:53:40;;;;;;;3.73;2.10;;;6.30;99.90;;;;;;4970619;28;20038;-80
2023/12/27 09:56:07;;;;;;;4.87;2.20;;;6.40;99.90;;;;;;4985174;28;20061;-80
2023/12/27 09:58:35;;;;;;;5.93;2.30;;;6.40;99.90;;;;;;4983368;28;21592;-80
2023/12/27 10:01:02;;;;;;;3.90;2.10;;;6.50;99.90;;;;;;4988219;28;20052;-79
2023/12/27 10:03:40;;;;;;;3.80;1.97;;;6.70;99.90;;;;;;4970290;28;20153;-79
2023/12/27 10:06:16;;;;;;;3.90;1.90;;;6.80;99.90;;;;;;4983118;28;20053;-80
2023/12/27 10:08:42;;;;;;;3.53;1.80;;;7.00;99.90;;;;;;4985380;28;20041;-79
2023/12/27 10:11:09;;;;;;;4.20;1.83;;;7.20;99.90;;;;;;4984807;28;20038;-80
2023/12/27 10:13:42;;;;;;;4.00;1.93;;;7.40;99.90;;;;;;4984891;28;20043;-80
2023/12/27 10:16:08;;;;;;;3.87;2.13;;;7.60;99.90;;;;;;4984597;28;20052;-81
2023/12/27 10:18:33;;;;;;;3.07;1.50;;;7.80;99.90;;;;;;4966924;28;20467;-81
2023/12/27 10:21:00;;;;;;;3.17;1.93;;;8.10;99.90;;;;;;4986780;28;20394;-79
2023/12/27 10:23:26;;;;;;;3.43;1.70;;;8.30;99.90;;;;;;4985761;28;20022;-80
2023/12/27 10:25:52;;;;;;;13.17;8.33;;;8.40;99.90;;;;;;4985773;28;20345;-80
2023/12/27 10:28:24;;;;;;;5.53;2.17;;;8.60;99.90;;;;;;4983263;28;20039;-80
2023/12/27 10:30:52;;;;;;;3.13;1.60;;;8.70;99.90;;;;;;4986397;28;20181;-79
2023/12/27 10:33:20;;;;;;;4.47;1.67;;;8.70;99.90;;;;;;4986649;28;20034;-79
2023/12/27 10:35:47;;;;;;;2.30;1.60;;;8.80;99.90;;;;;;4985777;28;20030;-79
2023/12/27 10:38:13;;;;;;;2.63;1.43;;;8.80;99.90;;;;;;4985108;28;20034;-80
2023/12/27 10:40:41;;;;;;;3.50;1.50;;;8.70;99.90;;;;;;4966925;28;20507;-81
2023/12/27 10:43:08;;;;;;;3.33;1.80;;;8.70;99.90;;;;;;4984881;28;20121;-80
2023/12/27 10:45:34;;;;;;;6.40;1.90;;;8.70;99.90;;;;;;4986595;28;20026;-79
2023/12/27 10:48:06;;;;;;;3.77;1.90;;;8.70;99.90;;;;;;4984448;28;20060;-79
2023/12/27 10:50:34;;;;;;;2.33;1.40;;;8.70;99.90;;;;;;4989218;28;20034;-80
2023/12/27 10:53:01;;;;;;;3.60;1.33;;;8.80;99.90;;;;;;4973295;28;20041;-80
2023/12/27 10:55:28;;;;;;;4.37;1.57;;;8.80;99.90;;;;;;4991148;28;20504;-80
2023/12/27 10:57:55;;;;;;;3.47;1.50;;;8.80;99.90;;;;;;4993789;28;20108;-80
2023/12/27 11:00:21;;;;;;;3.73;2.13;;;8.80;99.90;;;;;;4995109;28;20034;-81
2023/12/27 11:02:47;;;;;;;4.23;1.53;;;8.80;99.90;;;;;;4992259;28;20026;-81
2023/12/27 11:05:21;;;;;;;3.90;1.67;;;8.80;99.90;;;;;;4992554;28;20030;-79
2023/12/27 11:07:52;;;;;;;3.40;2.10;;;8.80;99.90;;;;;;4992595;28;20037;-80
2023/12/27 11:10:19;;;;;;;3.07;1.73;;;8.80;99.90;;;;;;4977371;28;20343;-80
2023/12/27 11:12:46;;;;;;;6.67;2.03;;;8.80;99.90;;;;;;4993664;28;20373;-80
2023/12/27 11:15:18;;;;;;;5.33;1.40;;;8.90;99.90;;;;;;4993792;28;20161;-79
2023/12/27 11:17:45;;;;;;;2.47;1.53;;;8.90;99.90;;;;;;4993401;28;20045;-81
2023/12/27 11:20:12;;;;;;;2.67;1.60;;;8.90;99.90;;;;;;4988006;28;20088;-86
2023/12/27 11:22:39;;;;;;;4.03;2.13;;;9.00;99.90;;;;;;4993666;28;20058;-80
2023/12/27 11:25:05;;;;;;;4.53;1.40;;;9.10;99.90;;;;;;4988997;28;20037;-79
2023/12/27 11:27:31;;;;;;;4.40;1.70;;;9.10;99.90;;;;;;4992938;28;20026;-80
2023/12/27 11:29:58;;;;;;;2.93;1.87;;;9.20;99.90;;;;;;4997982;28;20081;-79
2023/12/27 11:32:25;;;;;;;4.27;2.53;;;9.20;99.90;;;;;;4995375;28;20029;-79
2023/12/27 11:34:53;;;;;;;7.50;4.10;;;9.20;99.90;;;;;;4998651;28;20095;-80
2023/12/27 11:37:19;;;;;;;5.80;2.50;;;9.20;99.90;;;;;;4995726;28;20030;-79
2023/12/27 11:39:50;;;;;;;4.73;2.23;;;9.30;99.90;;;;;;4996953;28;20037;-80
2023/12/27 11:42:16;;;;;;;2.47;1.47;;;9.40;99.90;;;;;;4993691;28;20034;-80
2023/12/27 11:44:48;;;;;;;3.57;1.50;;;9.40;99.90;;;;;;4993999;28;20037;-80
2023/12/27 11:47:15;;;;;;;2.47;1.60;;;9.40;99.90;;;;;;4994371;28;20113;-81
2023/12/27 11:49:42;;;;;;;4.97;1.67;;;9.50;99.90;;;;;;4994521;28;20113;-80
2023/12/27 11:52:08;;;;;;;2.40;1.50;;;9.50;99.90;;;;;;4989714;28;20064;-79
2023/12/27 11:54:33;;;;;;;2.37;1.50;;;9.50;99.90;;;;;;4993348;28;20908;-80
2023/12/27 11:56:59;;;;;;;4.20;1.90;;;9.60;99.90;;;;;;4994698;28;20053;-79
2023/12/27 11:59:28;;;;;;;5.13;1.73;;;9.70;99.90;;;;;;4992606;28;20103;-79
2023/12/27 12:01:58;;;;;;;2.97;1.50;;;9.70;99.90;;;;;;4992225;28;20035;-80
2023/12/27 12:04:38;;;;;;;2.33;1.50;;;9.90;99.90;;;;;;4993251;28;20045;-79
2023/12/27 12:07:33;;;;;;;3.00;1.47;;;10.00;99.90;;;;;;4993104;28;20050;-79
2023/12/27 12:09:59;;;;;;;4.88;1.50;;;10.10;99.90;;;;;;4993195;28;20028;-79
2023/12/27 12:12:25;;;;;;;2.20;1.53;;;10.20;99.90;;;;;;4995212;28;20130;-80
2023/12/27 12:14:52;;;;;;;2.20;1.30;;;10.30;99.90;;;;;;4992473;28;20503;-79
2023/12/27 12:17:19;;;;;;;2.53;1.43;;;10.30;99.90;;;;;;4993732;28;20027;-79
2023/12/27 12:19:46;;;;;;;3.80;1.50;;;10.40;99.90;;;;;;4995185;28;20038;-80
2023/12/27 12:22:13;;;;;;;1.40;1.00;;;10.50;99.90;;;;;;4995313;28;20049;-80
2023/12/27 12:24:39;;;;;;;4.53;1.30;;;10.50;99.90;;;;;;4998110;28;20388;-79
2023/12/27 12:27:05;;;;;;;3.73;1.63;;;10.60;99.90;;;;;;4995755;28;20116;-80
2023/12/27 12:29:31;;;;;;;2.57;1.60;;;10.70;99.90;;;;;;4997536;28;20102;-80
2023/12/27 12:31:56;;;;;;;5.37;1.90;;;10.80;99.90;;;;;;4999519;28;20107;-80
2023/12/27 12:34:28;;;;;;;3.77;2.00;;;10.80;99.90;;;;;;4998559;28;20033;-79
2023/12/27 12:36:54;;;;;;;4.03;1.97;;;10.90;99.90;;;;;;4982890;28;20077;-79
2023/12/27 12:39:20;;;;;;;2.30;1.40;;;11.00;99.90;;;;;;5000097;28;20113;-79
2023/12/27 12:41:46;;;;;;;5.03;1.90;;;11.00;99.90;;;;;;5000413;28;20064;-79
2023/12/27 12:44:12;;;;;;;3.58;1.60;;;11.10;99.90;;;;;;4996456;28;20035;-79
2023/12/27 12:46:39;;;;;;;3.13;1.40;;;11.10;99.90;;;;;;4991575;28;20399;-83
2023/12/27 12:49:06;;;;;;;2.97;1.50;;;11.10;99.90;;;;;;4997118;28;20120;-83
2023/12/27 12:51:32;;;;;;;10.48;6.15;;;11.10;99.90;;;;;;4997008;28;20154;-82